Terminal Aerodrome Forecast
Issued by NWS Sterling, VA

Current Version | Previous Version | Text Only | Print | Product List | Glossary Off
Versions: 1 2 3 4 5 6 7 8 9 10 11 12 13 14 15 16 17 18 19 20 21 22 23 24 25 26 27

000
FTUS41 KLWX 292059 AAE
TAFIAD
TAF AMD
KIAD 292059Z 2921/3024 19008KT P6SM BKN040
     FM300300 17007KT P6SM SCT050
     FM300500 17008KT P6SM BKN050
     FM301000 20009KT 3SM BR BKN250
     FM301300 20009KT P6SM BKN070
     FM301900 28007KT P6SM BKN060
     FM302100 32011KT P6SM BKN200=

USA.gov is the U.S. government's official web portal to all federal, state and local government web resources and services.